createdAt,value
2022-10-23T00:01:17.196Z,15.40
2022-10-23T00:03:46.238Z,15.42
2022-10-23T00:06:15.048Z,15.56
2022-10-23T00:08:43.773Z,15.66
2022-10-23T00:11:13.369Z,15.70
2022-10-23T00:13:41.747Z,15.70
2022-10-23T00:16:09.918Z,15.76
2022-10-23T00:18:38.603Z,15.86
2022-10-23T00:21:08.046Z,15.96
2022-10-23T00:23:36.466Z,15.88
2022-10-23T00:26:04.702Z,15.79
2022-10-23T00:28:32.633Z,15.72
2022-10-23T00:31:05.275Z,15.74
2022-10-23T00:33:33.384Z,15.74
2022-10-23T00:36:03.687Z,15.49
2022-10-23T00:38:31.787Z,15.17
2022-10-23T00:41:00.263Z,14.97
2022-10-23T00:43:30.017Z,14.77
2022-10-23T00:45:58.030Z,14.58
2022-10-23T00:48:26.912Z,14.39
2022-10-23T00:50:55.120Z,14.31
2022-10-23T00:53:23.375Z,14.32
2022-10-23T00:55:54.057Z,14.12
2022-10-23T00:58:22.394Z,14.00
2022-10-23T01:00:52.197Z,13.93
2022-10-23T01:03:23.277Z,13.75
2022-10-23T01:05:51.207Z,13.66
2022-10-23T01:08:21.958Z,13.53
2022-10-23T01:10:58.962Z,13.47
2022-10-23T01:13:37.233Z,13.40
2022-10-23T01:16:26.015Z,13.36
2022-10-23T01:19:09.898Z,13.28
2022-10-23T01:21:53.003Z,13.28
2022-10-23T01:24:27.208Z,13.25
2022-10-23T01:27:01.723Z,13.26
2022-10-23T01:29:35.912Z,13.27
2022-10-23T01:32:12.921Z,13.20
2022-10-23T01:34:58.751Z,13.19
2022-10-23T01:37:32.582Z,13.18
2022-10-23T01:40:05.735Z,13.19
2022-10-23T01:42:37.795Z,13.34
2022-10-23T01:45:10.165Z,13.52
2022-10-23T01:47:48.111Z,13.61
2022-10-23T01:50:19.892Z,13.73
2022-10-23T01:52:49.238Z,13.82
2022-10-23T01:55:17.838Z,13.96
2022-10-23T01:57:48.058Z,14.03
2022-10-23T02:00:17.930Z,13.93
2022-10-23T02:02:56.183Z,13.94
2022-10-23T02:05:30.600Z,13.97
2022-10-23T02:07:59.416Z,13.99
2022-10-23T02:10:33.955Z,13.83
2022-10-23T02:13:05.051Z,13.70
2022-10-23T02:15:45.411Z,13.64
2022-10-23T02:18:36.850Z,13.43
2022-10-23T02:21:10.575Z,13.55
2022-10-23T02:23:50.385Z,13.68
2022-10-23T02:26:25.705Z,13.54
2022-10-23T02:31:33.943Z,13.24
2022-10-23T02:34:01.958Z,13.28
2022-10-23T02:36:29.990Z,13.40
2022-10-23T02:38:58.754Z,13.53
2022-10-23T02:41:29.401Z,13.65
2022-10-23T02:44:09.696Z,13.83
2022-10-23T02:46:56.565Z,13.93
2022-10-23T02:49:30.876Z,13.98
2022-10-23T02:51:58.853Z,14.11
2022-10-23T02:54:30.416Z,14.23
2022-10-23T02:57:03.692Z,14.33
2022-10-23T02:59:37.610Z,14.30
2022-10-23T03:02:35.278Z,14.05
2022-10-23T03:05:04.574Z,13.84
2022-10-23T03:07:34.661Z,13.63
2022-10-23T03:10:07.027Z,13.46
2022-10-23T03:12:35.033Z,13.34
2022-10-23T03:15:03.444Z,13.27
2022-10-23T03:17:31.383Z,13.14
2022-10-23T03:20:00.776Z,13.08
2022-10-23T03:22:28.853Z,13.03
2022-10-23T03:24:57.131Z,12.99
2022-10-23T03:27:25.152Z,12.97
2022-10-23T03:29:55.832Z,12.98
2022-10-23T03:32:23.913Z,12.91
2022-10-23T03:34:51.966Z,12.81
2022-10-23T03:37:19.979Z,12.67
2022-10-23T03:39:48.003Z,12.62
2022-10-23T03:42:16.004Z,12.54
2022-10-23T03:44:43.915Z,12.51
2022-10-23T03:47:12.316Z,12.50
2022-10-23T03:49:40.395Z,12.48
2022-10-23T03:52:08.257Z,12.46
2022-10-23T03:54:36.255Z,12.44
2022-10-23T03:57:04.059Z,12.40
2022-10-23T03:59:32.261Z,12.36
2022-10-23T04:02:00.704Z,12.33
2022-10-23T04:04:29.093Z,12.33
2022-10-23T04:06:57.139Z,12.33
2022-10-23T04:09:25.471Z,12.32
2022-10-23T04:11:55.672Z,12.32
2022-10-23T04:14:26.943Z,12.32
2022-10-23T04:16:55.206Z,12.36
2022-10-23T04:19:23.277Z,12.38
2022-10-23T04:21:51.124Z,12.39
2022-10-23T04:24:18.998Z,12.40
2022-10-23T04:26:46.830Z,12.41
2022-10-23T04:29:14.931Z,12.40
2022-10-23T04:31:42.796Z,12.42
2022-10-23T04:34:11.106Z,12.48
2022-10-23T04:36:38.975Z,12.52
2022-10-23T04:39:11.369Z,12.52
2022-10-23T04:41:39.191Z,12.55
2022-10-23T04:44:07.686Z,12.56
2022-10-23T04:46:39.004Z,12.55
2022-10-23T04:49:07.375Z,12.53
2022-10-23T04:51:51.008Z,12.48
2022-10-23T04:54:42.351Z,12.48
2022-10-23T04:57:24.245Z,12.48
2022-10-23T05:00:00.306Z,12.49
2022-10-23T05:02:28.587Z,12.54
2022-10-23T05:04:56.655Z,12.60
2022-10-23T05:07:36.730Z,12.63
2022-10-23T05:10:24.939Z,12.64
2022-10-23T05:13:13.226Z,12.64
2022-10-23T05:18:26.734Z,12.68
2022-10-23T05:20:57.494Z,12.70
2022-10-23T05:23:26.871Z,12.70
2022-10-23T05:25:58.596Z,12.73
2022-10-23T05:28:26.493Z,12.75
2022-10-23T05:30:54.850Z,12.80
2022-10-23T05:33:27.342Z,12.77
2022-10-23T05:35:55.718Z,12.75
2022-10-23T05:38:26.459Z,12.74
2022-10-23T05:40:54.790Z,12.76
2022-10-23T05:43:26.189Z,12.78
2022-10-23T05:46:04.195Z,12.83
2022-10-23T05:48:50.378Z,12.83
2022-10-23T05:51:37.913Z,12.86
2022-10-23T05:54:21.531Z,12.89
2022-10-23T05:57:18.810Z,12.93
2022-10-23T05:59:51.139Z,12.99
2022-10-23T06:02:41.446Z,13.04
2022-10-23T06:05:21.099Z,13.13
2022-10-23T06:08:11.876Z,13.29
2022-10-23T06:10:39.871Z,13.39
2022-10-23T06:13:09.072Z,13.45
2022-10-23T06:15:38.482Z,13.50
2022-10-23T06:18:14.737Z,13.61
2022-10-23T06:20:53.184Z,13.68
2022-10-23T06:23:25.284Z,13.78
2022-10-23T06:26:17.037Z,13.88
2022-10-23T06:28:57.868Z,14.03
2022-10-23T06:31:28.381Z,14.17
2022-10-23T06:33:59.364Z,14.28
2022-10-23T06:36:28.136Z,14.37
2022-10-23T06:39:16.375Z,14.54
2022-10-23T06:41:59.224Z,14.70
2022-10-23T06:45:00.387Z,14.81
2022-10-23T06:47:50.660Z,14.94
2022-10-23T06:50:21.292Z,15.06
2022-10-23T06:52:49.729Z,15.13
2022-10-23T06:55:18.867Z,15.18
2022-10-23T06:57:47.306Z,15.18
2022-10-23T07:00:16.013Z,15.15
2022-10-23T07:02:50.145Z,15.12
2022-10-23T07:05:18.184Z,15.17
2022-10-23T07:07:46.348Z,15.21
2022-10-23T07:10:17.943Z,15.20
2022-10-23T07:12:49.288Z,15.24
2022-10-23T07:15:35.797Z,15.30
2022-10-23T07:18:04.680Z,15.31
2022-10-23T07:20:44.322Z,15.43
2022-10-23T07:23:12.932Z,15.57
2022-10-23T07:25:41.182Z,15.81
2022-10-23T07:28:09.973Z,16.26
2022-10-23T07:30:38.272Z,16.36
2022-10-23T07:33:06.933Z,16.39
2022-10-23T07:35:42.549Z,16.65
2022-10-23T07:38:14.218Z,16.89
2022-10-23T07:40:45.551Z,16.85
2022-10-23T07:43:17.543Z,16.73
2022-10-23T07:45:49.621Z,16.65
2022-10-23T07:48:25.564Z,16.41
2022-10-23T07:51:01.729Z,16.14
2022-10-23T07:53:29.969Z,15.99
2022-10-23T07:56:23.378Z,15.93
2022-10-23T07:59:12.326Z,15.86
2022-10-23T08:01:43.081Z,15.85
2022-10-23T08:04:11.392Z,15.85
2022-10-23T08:06:48.322Z,15.94
2022-10-23T08:09:16.404Z,16.05
2022-10-23T08:11:45.052Z,16.06
2022-10-23T08:14:16.157Z,16.10
2022-10-23T08:16:44.238Z,16.17
2022-10-23T08:19:32.694Z,16.12
2022-10-23T08:22:04.000Z,16.14
2022-10-23T08:24:32.070Z,16.19
2022-10-23T08:27:00.111Z,16.32
2022-10-23T08:29:28.748Z,16.50
2022-10-23T08:31:57.703Z,16.56
2022-10-23T08:34:31.659Z,16.52
2022-10-23T08:37:00.359Z,16.51
2022-10-23T08:39:29.073Z,16.50
2022-10-23T08:42:22.312Z,16.58
2022-10-23T08:44:55.220Z,16.73
2022-10-23T08:47:44.219Z,16.79
2022-10-23T08:50:35.258Z,16.88
2022-10-23T08:53:15.552Z,16.77
2022-10-23T08:55:45.444Z,16.69
2022-10-23T08:58:23.671Z,16.56
2022-10-23T09:00:51.797Z,16.38
2022-10-23T09:03:20.135Z,16.34
2022-10-23T09:06:08.909Z,16.52
2022-10-23T09:08:43.497Z,16.65
2022-10-23T09:11:20.256Z,16.69
2022-10-23T09:14:01.460Z,16.78
2022-10-23T09:16:41.586Z,16.78
2022-10-23T09:19:12.198Z,16.77
2022-10-23T09:21:40.510Z,16.77
2022-10-23T09:24:18.926Z,16.77
2022-10-23T09:26:50.550Z,16.67
2022-10-23T09:29:27.763Z,16.53
2022-10-23T09:31:57.421Z,16.39
2022-10-23T09:34:26.669Z,16.47
2022-10-23T09:37:02.115Z,16.60
2022-10-23T09:39:31.415Z,16.78
2022-10-23T09:42:02.475Z,17.04
2022-10-23T09:44:31.528Z,17.31
2022-10-23T09:47:01.463Z,17.53
2022-10-23T09:49:31.275Z,17.79
2022-10-23T09:52:08.462Z,18.10
2022-10-23T09:54:38.289Z,18.34
2022-10-23T09:57:15.948Z,18.50
2022-10-23T09:59:43.879Z,18.76
2022-10-23T10:02:27.077Z,19.23
2022-10-23T10:05:23.921Z,19.71
2022-10-23T10:08:10.829Z,19.94
2022-10-23T10:10:41.630Z,19.91
2022-10-23T10:13:22.297Z,19.85
2022-10-23T10:15:53.468Z,20.03
2022-10-23T10:18:28.777Z,20.03
2022-10-23T10:20:59.543Z,20.04
2022-10-23T10:23:27.410Z,20.05
2022-10-23T10:26:13.920Z,20.09
2022-10-23T10:28:42.024Z,20.15
2022-10-23T10:31:10.221Z,20.13
2022-10-23T10:33:38.215Z,19.90
2022-10-23T10:38:57.532Z,19.55
2022-10-23T10:41:28.658Z,19.23
2022-10-23T10:44:15.669Z,19.20
2022-10-23T10:46:46.580Z,19.39
2022-10-23T10:49:29.064Z,19.69
2022-10-23T10:52:15.944Z,19.96
2022-10-23T10:54:53.648Z,19.94
2022-10-23T10:57:21.497Z,20.02
2022-10-23T10:59:51.336Z,20.09
2022-10-23T11:02:23.886Z,20.28
2022-10-23T11:04:56.356Z,20.24
2022-10-23T11:07:28.053Z,20.35
2022-10-23T11:09:59.092Z,20.08
2022-10-23T11:12:27.795Z,19.76
2022-10-23T11:14:56.731Z,19.37
2022-10-23T11:17:39.264Z,18.91
2022-10-23T11:20:10.079Z,18.76
2022-10-23T11:22:53.403Z,18.92
2022-10-23T11:25:21.350Z,19.24
2022-10-23T11:28:10.305Z,19.43
2022-10-23T11:31:12.232Z,19.64
2022-10-23T11:33:42.599Z,19.63
2022-10-23T11:36:19.555Z,19.73
2022-10-23T11:38:49.758Z,19.84
2022-10-23T11:41:22.351Z,19.97
2022-10-23T11:43:55.607Z,19.88
2022-10-23T11:46:23.662Z,19.89
2022-10-23T11:48:52.330Z,19.94
2022-10-23T11:51:27.688Z,19.83
2022-10-23T11:54:06.100Z,19.82
2022-10-23T11:56:34.476Z,19.78
2022-10-23T11:59:21.185Z,19.71
2022-10-23T12:01:50.817Z,19.60
2022-10-23T12:04:22.495Z,19.43
2022-10-23T12:07:00.073Z,19.15
2022-10-23T12:09:37.846Z,18.99
2022-10-23T12:12:06.013Z,18.90
2022-10-23T12:14:35.830Z,18.91
2022-10-23T12:17:19.154Z,19.12
2022-10-23T12:19:48.822Z,19.39
2022-10-23T12:22:17.410Z,19.63
2022-10-23T12:24:51.530Z,19.82
2022-10-23T12:27:31.922Z,19.84
2022-10-23T12:30:18.626Z,19.86
2022-10-23T12:33:06.767Z,19.77
2022-10-23T12:35:48.979Z,19.81
2022-10-23T12:38:16.961Z,19.61
2022-10-23T12:40:45.514Z,19.62
2022-10-23T12:43:23.733Z,19.83
2022-10-23T12:45:52.315Z,19.92
2022-10-23T12:48:22.128Z,20.02
2022-10-23T12:50:53.685Z,20.14
2022-10-23T12:53:23.395Z,20.22
2022-10-23T12:55:54.810Z,20.18
2022-10-23T12:58:30.237Z,20.15
2022-10-23T13:01:02.069Z,20.06
2022-10-23T13:03:31.892Z,19.97
2022-10-23T13:06:04.702Z,19.65
2022-10-23T13:08:35.161Z,19.53
2022-10-23T13:11:22.267Z,19.48
2022-10-23T13:13:51.140Z,19.43
2022-10-23T13:16:21.432Z,19.39
2022-10-23T13:18:49.660Z,19.42
2022-10-23T13:21:24.464Z,19.25
2022-10-23T13:23:52.980Z,18.98
2022-10-23T13:26:25.762Z,18.92
2022-10-23T13:28:53.933Z,18.81
2022-10-23T13:31:21.869Z,18.75
2022-10-23T13:33:54.762Z,18.67
2022-10-23T13:36:24.264Z,18.55
2022-10-23T13:39:01.682Z,18.35
2022-10-23T13:41:35.815Z,18.26
2022-10-23T13:44:04.553Z,18.19
2022-10-23T13:46:32.903Z,18.15
2022-10-23T13:49:00.927Z,18.22
2022-10-23T13:51:30.537Z,18.22
2022-10-23T13:53:59.013Z,18.30
2022-10-23T13:56:27.905Z,18.36
2022-10-23T13:58:55.874Z,18.35
2022-10-23T14:01:26.402Z,18.39
2022-10-23T14:03:55.117Z,18.41
2022-10-23T14:06:23.773Z,18.29
2022-10-23T14:08:52.359Z,18.19
2022-10-23T14:11:20.324Z,18.13
2022-10-23T14:13:48.876Z,18.12
2022-10-23T14:16:18.146Z,18.10
2022-10-23T14:18:46.177Z,17.90
2022-10-23T14:21:15.476Z,17.72
2022-10-23T14:23:43.553Z,17.62
2022-10-23T14:26:16.855Z,17.60
2022-10-23T14:28:44.857Z,17.43
2022-10-23T14:31:14.012Z,17.19
2022-10-23T14:33:41.979Z,17.08
2022-10-23T14:36:10.497Z,16.95
2022-10-23T14:38:38.426Z,16.76
2022-10-23T14:41:10.828Z,16.58
2022-10-23T14:43:39.403Z,16.46
2022-10-23T14:46:11.722Z,16.33
2022-10-23T14:48:40.130Z,16.21
2022-10-23T14:51:16.107Z,16.07
2022-10-23T14:53:44.159Z,15.97
2022-10-23T14:56:11.996Z,15.83
2022-10-23T14:58:39.943Z,15.70
2022-10-23T15:01:08.823Z,15.57
2022-10-23T15:03:37.415Z,15.52
2022-10-23T15:06:06.972Z,15.53
2022-10-23T15:08:35.654Z,15.65
2022-10-23T15:11:06.626Z,15.70
2022-10-23T15:13:37.057Z,15.62
2022-10-23T15:16:06.122Z,15.38
2022-10-23T15:21:09.734Z,14.79
2022-10-23T15:23:40.204Z,14.58
2022-10-23T15:26:10.446Z,14.41
2022-10-23T15:28:38.553Z,14.37
2022-10-23T15:31:06.828Z,14.43
2022-10-23T15:33:34.999Z,14.50
2022-10-23T15:36:03.033Z,14.56
2022-10-23T15:38:31.208Z,14.62
2022-10-23T15:41:13.616Z,14.59
2022-10-23T15:43:41.653Z,14.55
2022-10-23T15:46:09.633Z,14.51
2022-10-23T15:48:37.657Z,14.45
2022-10-23T15:51:05.697Z,14.44
2022-10-23T15:53:33.652Z,14.40
2022-10-23T15:56:01.768Z,14.30
2022-10-23T15:58:29.765Z,14.20
2022-10-23T16:00:57.900Z,14.10
2022-10-23T16:03:26.187Z,13.95
2022-10-23T16:05:54.050Z,13.85
2022-10-23T16:08:22.837Z,13.87
2022-10-23T16:10:50.596Z,13.98
2022-10-23T16:13:18.386Z,14.09
2022-10-23T16:15:46.542Z,14.20
2022-10-23T16:18:16.247Z,14.29
2022-10-23T16:20:44.218Z,14.36
2022-10-23T16:23:12.215Z,14.34
2022-10-23T16:25:40.155Z,14.21
2022-10-23T16:28:08.323Z,14.05
2022-10-23T16:30:40.289Z,13.91
2022-10-23T16:33:08.459Z,13.88
2022-10-23T16:35:37.149Z,13.91
2022-10-23T16:38:08.901Z,13.99
2022-10-23T16:40:36.769Z,14.02
2022-10-23T16:43:24.091Z,14.01
2022-10-23T16:46:08.753Z,13.91
2022-10-23T16:48:36.904Z,13.72
2022-10-23T16:51:05.734Z,13.66
2022-10-23T16:53:33.886Z,13.62
2022-10-23T16:56:04.202Z,13.61
2022-10-23T16:58:32.794Z,13.54
2022-10-23T17:01:02.408Z,13.57
2022-10-23T17:03:30.691Z,13.64
2022-10-23T17:06:04.158Z,13.76
2022-10-23T17:08:34.681Z,13.84
2022-10-23T17:11:10.632Z,13.86
2022-10-23T17:13:40.469Z,13.88
2022-10-23T17:16:10.616Z,13.90
2022-10-23T17:18:42.874Z,13.94
2022-10-23T17:21:13.116Z,13.98
2022-10-23T17:23:41.764Z,13.99
2022-10-23T17:26:10.904Z,14.01
2022-10-23T17:28:42.579Z,13.98
2022-10-23T17:31:14.238Z,14.03
2022-10-23T17:33:42.444Z,14.06
2022-10-23T17:36:10.950Z,14.04
2022-10-23T17:38:39.827Z,14.04
2022-10-23T17:41:08.414Z,14.02
2022-10-23T17:43:36.730Z,13.92
2022-10-23T17:46:05.556Z,13.80
2022-10-23T17:48:34.352Z,13.72
2022-10-23T17:51:03.540Z,13.65
2022-10-23T17:53:31.562Z,13.55
2022-10-23T17:56:01.223Z,13.48
2022-10-23T17:58:29.302Z,13.48
2022-10-23T18:00:57.313Z,13.40
2022-10-23T18:03:25.284Z,13.35
2022-10-23T18:05:53.330Z,13.34
2022-10-23T18:08:21.102Z,13.34
2022-10-23T18:10:49.335Z,13.29
2022-10-23T18:13:17.614Z,13.24
2022-10-23T18:15:45.396Z,13.21
2022-10-23T18:18:13.240Z,13.18
2022-10-23T18:20:42.066Z,13.20
2022-10-23T18:23:09.922Z,13.24
2022-10-23T18:25:42.188Z,13.28
2022-10-23T18:28:10.130Z,13.33
2022-10-23T18:33:11.176Z,13.33
2022-10-23T18:35:38.967Z,13.20
2022-10-23T18:38:07.408Z,13.15
2022-10-23T18:40:36.198Z,12.97
2022-10-23T18:43:07.008Z,12.75
2022-10-23T18:45:37.583Z,12.67
2022-10-23T18:48:05.774Z,12.58
2022-10-23T18:50:36.255Z,12.52
2022-10-23T18:53:04.455Z,12.51
2022-10-23T18:58:04.999Z,12.48
2022-10-23T19:00:33.173Z,12.55
2022-10-23T19:03:01.021Z,12.58
2022-10-23T19:05:28.847Z,12.64
2022-10-23T19:07:56.723Z,12.64
2022-10-23T19:10:26.845Z,12.59
2022-10-23T19:12:54.838Z,12.60
2022-10-23T19:15:22.970Z,12.76
2022-10-23T19:17:54.064Z,12.94
2022-10-23T19:20:22.558Z,13.00
2022-10-23T19:22:51.852Z,13.00
2022-10-23T19:25:21.665Z,13.02
2022-10-23T19:27:49.732Z,12.96
2022-10-23T19:30:21.905Z,12.75
2022-10-23T19:32:51.234Z,12.44
2022-10-23T19:35:20.606Z,12.22
2022-10-23T19:37:48.677Z,12.09
2022-10-23T19:40:16.724Z,11.99
2022-10-23T19:42:44.614Z,12.05
2022-10-23T19:45:13.962Z,12.10
2022-10-23T19:47:42.745Z,12.15
2022-10-23T19:50:10.873Z,12.29
2022-10-23T19:52:39.247Z,12.33
2022-10-23T19:55:08.972Z,12.43
2022-10-23T19:57:37.270Z,12.40
2022-10-23T20:00:06.603Z,12.18
2022-10-23T20:02:38.364Z,12.07
2022-10-23T20:05:06.860Z,12.15
2022-10-23T20:07:36.090Z,12.21
2022-10-23T20:10:06.037Z,12.16
2022-10-23T20:12:34.703Z,12.12
2022-10-23T20:15:02.824Z,12.29
2022-10-23T20:17:31.010Z,12.22
2022-10-23T20:19:58.978Z,12.26
2022-10-23T20:22:27.018Z,12.35
2022-10-23T20:24:54.875Z,12.46
2022-10-23T20:27:23.024Z,12.66
2022-10-23T20:29:50.952Z,12.81
2022-10-23T20:32:18.873Z,12.77
2022-10-23T20:34:46.789Z,12.80
2022-10-23T20:37:14.726Z,12.76
2022-10-23T20:39:43.463Z,12.54
2022-10-23T20:42:11.588Z,12.37
2022-10-23T20:44:39.525Z,12.17
2022-10-23T20:47:07.511Z,12.09
2022-10-23T20:49:35.386Z,12.18
2022-10-23T20:52:03.587Z,12.19
2022-10-23T20:54:32.010Z,12.19
2022-10-23T20:56:59.935Z,12.30
2022-10-23T20:59:28.024Z,12.48
2022-10-23T21:01:56.488Z,12.61
2022-10-23T21:04:26.726Z,12.71
2022-10-23T21:07:11.368Z,12.66
2022-10-23T21:09:40.168Z,12.41
2022-10-23T21:12:09.233Z,12.39
2022-10-23T21:14:37.330Z,12.16
2022-10-23T21:17:05.592Z,12.01
2022-10-23T21:19:33.483Z,12.00
2022-10-23T21:22:01.330Z,12.01
2022-10-23T21:24:29.181Z,12.07
2022-10-23T21:26:57.336Z,12.04
2022-10-23T21:29:25.152Z,11.98
2022-10-23T21:31:54.442Z,11.81
2022-10-23T21:34:22.983Z,11.71
2022-10-23T21:39:38.914Z,11.65
2022-10-23T21:42:06.981Z,11.67
2022-10-23T21:44:35.145Z,11.69
2022-10-23T21:47:03.636Z,11.76
2022-10-23T21:49:32.106Z,11.77
2022-10-23T21:52:01.824Z,11.80
2022-10-23T21:54:29.792Z,11.90
2022-10-23T21:56:57.760Z,11.94
2022-10-23T21:59:28.887Z,11.98
2022-10-23T22:02:00.337Z,11.97
2022-10-23T22:04:28.331Z,11.82
2022-10-23T22:06:56.395Z,11.68
2022-10-23T22:09:24.641Z,11.68
2022-10-23T22:11:53.412Z,11.59
2022-10-23T22:14:22.988Z,11.58
2022-10-23T22:16:52.276Z,11.46
2022-10-23T22:19:21.712Z,11.29
2022-10-23T22:21:50.659Z,11.22
2022-10-23T22:24:19.087Z,11.25
2022-10-23T22:26:48.428Z,11.27
2022-10-23T22:29:18.329Z,11.32
2022-10-23T22:31:49.688Z,11.28
2022-10-23T22:34:27.045Z,11.27
2022-10-23T22:37:09.078Z,11.36
2022-10-23T22:39:37.150Z,11.36
2022-10-23T22:42:05.449Z,11.57
2022-10-23T22:44:33.508Z,11.56
2022-10-23T22:47:01.359Z,11.52
2022-10-23T22:49:29.327Z,11.52
2022-10-23T22:51:57.151Z,11.48
2022-10-23T22:54:25.266Z,11.31
2022-10-23T22:56:53.555Z,11.07
2022-10-23T22:59:21.466Z,11.07
2022-10-23T23:01:50.432Z,11.24
2022-10-23T23:07:08.130Z,11.45
2022-10-23T23:09:43.114Z,11.53
2022-10-23T23:12:12.275Z,11.54
2022-10-23T23:14:40.652Z,11.69
2022-10-23T23:17:09.032Z,11.77
2022-10-23T23:19:36.813Z,11.83
2022-10-23T23:22:05.066Z,11.72
2022-10-23T23:24:33.153Z,11.63
2022-10-23T23:27:01.230Z,11.75
2022-10-23T23:29:29.761Z,11.74
2022-10-23T23:31:57.957Z,11.76
2022-10-23T23:34:25.820Z,11.77
2022-10-23T23:36:53.898Z,11.83
2022-10-23T23:39:21.765Z,11.77
2022-10-23T23:41:49.629Z,11.79
2022-10-23T23:44:17.883Z,11.81
2022-10-23T23:46:45.907Z,11.71
2022-10-23T23:49:13.864Z,11.68
2022-10-23T23:51:42.116Z,11.59
2022-10-23T23:54:10.185Z,11.54
2022-10-23T23:56:38.130Z,11.51
2022-10-23T23:59:06.531Z,11.50
